Time;durP1;ratioP1;P1;durP2;ratioP2;P2;SDS_P1;SDS_P2;PMS_P1;PMS_P2;Temp;Humidity;BMP_temperature;BMP_pressure;BME280_temperature;BME280_humidity;BME280_pressure;Samples;Min_cycle;Max_cycle;Signal;HPM_P1;HPM_P2
2021/08/25 00:01:31;;;;;;;11.43;8.02;;;14.10;99.90;;;;;;5035843;28;20033;-82
2021/08/25 00:03:57;;;;;;;11.68;8.68;;;14.00;99.90;;;;;;5036754;28;20030;-81
2021/08/25 00:06:23;;;;;;;13.15;8.10;;;14.00;99.90;;;;;;5018761;28;20075;-82
2021/08/25 00:08:48;;;;;;;12.85;8.10;;;14.00;99.90;;;;;;5055982;28;20456;-82
2021/08/25 00:11:14;;;;;;;13.30;8.75;;;14.00;99.90;;;;;;5070272;28;20043;-81
2021/08/25 00:13:39;;;;;;;11.80;8.32;;;14.00;99.90;;;;;;5017780;28;20437;-79
2021/08/25 00:16:05;;;;;;;12.30;7.53;;;14.00;99.90;;;;;;5035897;28;20474;-82
2021/08/25 00:18:31;;;;;;;11.43;7.53;;;14.00;99.90;;;;;;5035616;28;20052;-82
2021/08/25 00:20:57;;;;;;;11.50;8.30;;;13.90;99.90;;;;;;5018630;28;20026;-82
2021/08/25 00:23:24;;;;;;;10.95;8.13;;;13.90;99.90;;;;;;5040129;28;20083;-82
2021/08/25 00:25:53;;;;;;;13.35;8.80;;;13.90;99.90;;;;;;5038692;28;20229;-79
2021/08/25 00:28:19;;;;;;;12.82;8.30;;;13.80;99.90;;;;;;5023515;28;20116;-81
2021/08/25 00:30:44;;;;;;;10.70;6.95;;;13.80;99.90;;;;;;5037046;28;20060;-81
2021/08/25 00:33:10;;;;;;;11.27;8.07;;;13.80;99.90;;;;;;5037128;28;20133;-82
2021/08/25 00:35:36;;;;;;;10.80;7.90;;;13.70;99.90;;;;;;5036682;28;20034;-81
2021/08/25 00:38:01;;;;;;;10.50;7.78;;;13.70;99.90;;;;;;5036690;28;20034;-81
2021/08/25 00:40:27;;;;;;;11.95;7.70;;;13.70;99.90;;;;;;5035850;28;20030;-81
2021/08/25 00:42:52;;;;;;;9.70;7.15;;;13.60;99.90;;;;;;5037424;28;20158;-81
2021/08/25 00:45:18;;;;;;;12.32;8.43;;;13.60;99.90;;;;;;5064769;28;20187;-79
2021/08/25 00:47:44;;;;;;;11.45;7.53;;;13.60;99.90;;;;;;5035829;28;20029;-82
2021/08/25 00:50:11;;;;;;;13.82;7.57;;;13.60;99.90;;;;;;5036136;28;20032;-80
2021/08/25 00:52:41;;;;;;;12.02;7.40;;;13.50;99.90;;;;;;5034367;28;20034;-81
2021/08/25 00:55:13;;;;;;;11.75;7.40;;;13.50;99.90;;;;;;5021431;28;20485;-81
2021/08/25 00:57:39;;;;;;;12.18;8.32;;;13.50;99.90;;;;;;5016332;28;20052;-81
2021/08/25 01:00:09;;;;;;;11.13;7.80;;;13.50;99.90;;;;;;5017569;28;20804;-81
2021/08/25 01:02:57;;;;;;;12.30;7.85;;;13.50;99.90;;;;;;5036096;28;20030;-81
2021/08/25 01:05:23;;;;;;;12.55;8.02;;;13.50;99.90;;;;;;5036534;28;20056;-80
2021/08/25 01:07:49;;;;;;;12.95;8.90;;;13.40;99.90;;;;;;5018283;28;20556;-81
2021/08/25 01:10:31;;;;;;;11.68;8.20;;;13.40;99.90;;;;;;5035474;28;20021;-81
2021/08/25 01:13:08;;;;;;;13.20;7.88;;;13.40;99.90;;;;;;5018362;28;20057;-82
2021/08/25 01:15:38;;;;;;;11.98;7.53;;;13.40;99.90;;;;;;5035736;28;20124;-82
2021/08/25 01:18:08;;;;;;;10.80;7.38;;;13.40;99.90;;;;;;5034707;28;20044;-82
2021/08/25 01:20:35;;;;;;;11.55;7.50;;;13.40;99.90;;;;;;5035170;28;20026;-83
2021/08/25 01:23:01;;;;;;;10.90;7.53;;;13.40;99.90;;;;;;5033417;28;20085;-82
2021/08/25 01:25:29;;;;;;;9.82;7.07;;;13.40;99.90;;;;;;5048981;28;20180;-83
2021/08/25 01:28:08;;;;;;;11.50;7.90;;;13.30;99.90;;;;;;5035076;28;20021;-82
2021/08/25 01:30:37;;;;;;;11.30;7.68;;;13.30;99.90;;;;;;5034777;28;20448;-83
2021/08/25 01:33:02;;;;;;;10.15;7.03;;;13.30;99.90;;;;;;5034837;28;20032;-83
2021/08/25 01:35:46;;;;;;;10.48;7.55;;;13.30;99.90;;;;;;5034884;28;20029;-83
2021/08/25 01:38:31;;;;;;;11.25;7.25;;;13.30;99.90;;;;;;5017631;28;20083;-82
2021/08/25 01:40:57;;;;;;;9.50;6.97;;;13.30;99.90;;;;;;5017080;28;20029;-82
2021/08/25 01:43:23;;;;;;;11.52;7.53;;;13.30;99.90;;;;;;5044119;28;20563;-83
2021/08/25 01:45:48;;;;;;;10.75;7.82;;;13.20;99.90;;;;;;5059557;28;20026;-81
2021/08/25 01:48:14;;;;;;;10.35;7.32;;;13.30;99.90;;;;;;5035299;28;20029;-82
2021/08/25 01:50:40;;;;;;;10.57;7.10;;;13.30;99.90;;;;;;5034850;28;20071;-81
2021/08/25 01:53:06;;;;;;;10.98;7.57;;;13.30;99.90;;;;;;5034749;28;20021;-83
2021/08/25 01:55:32;;;;;;;10.82;7.25;;;13.30;99.90;;;;;;5035339;28;20039;-83
2021/08/25 01:57:57;;;;;;;14.25;8.15;;;13.30;99.90;;;;;;5035056;28;20033;-83
2021/08/25 02:00:23;;;;;;;11.07;7.55;;;13.30;99.90;;;;;;5025743;28;20025;-83
2021/08/25 02:02:48;;;;;;;10.00;6.38;;;13.20;99.90;;;;;;5054066;28;20059;-83
2021/08/25 02:05:14;;;;;;;10.07;6.80;;;13.20;99.90;;;;;;5035710;28;20045;-81
2021/08/25 02:07:40;;;;;;;10.55;7.55;;;13.20;99.90;;;;;;5032855;28;20026;-83
2021/08/25 02:10:06;;;;;;;12.70;8.15;;;13.20;99.90;;;;;;5057984;28;20029;-83
2021/08/25 02:12:31;;;;;;;11.25;7.60;;;13.10;99.90;;;;;;5067465;28;20087;-83
2021/08/25 02:14:57;;;;;;;14.60;8.95;;;13.10;99.90;;;;;;5071705;28;20059;-83
2021/08/25 02:17:22;;;;;;;11.88;7.80;;;13.10;99.90;;;;;;5036607;28;20025;-82
2021/08/25 02:19:48;;;;;;;14.43;8.20;;;13.10;99.90;;;;;;5062532;28;20040;-83
2021/08/25 02:22:14;;;;;;;10.77;7.57;;;13.10;99.90;;;;;;5078163;28;20056;-83
2021/08/25 02:24:39;;;;;;;13.32;7.80;;;13.00;99.90;;;;;;5061488;28;20044;-83
2021/08/25 02:27:05;;;;;;;11.65;7.70;;;13.10;99.90;;;;;;5034999;28;20034;-83
2021/08/25 02:29:30;;;;;;;12.10;7.60;;;13.00;99.90;;;;;;5034768;28;20104;-82
2021/08/25 02:31:56;;;;;;;14.70;7.95;;;13.10;99.90;;;;;;5016932;28;20033;-82
2021/08/25 02:34:22;;;;;;;10.38;7.65;;;13.00;99.90;;;;;;5033110;28;20132;-81
2021/08/25 02:36:47;;;;;;;11.15;7.28;;;13.10;99.90;;;;;;5017727;28;20034;-82
2021/08/25 02:39:13;;;;;;;11.60;7.60;;;13.10;99.90;;;;;;5033946;28;20478;-80
2021/08/25 02:41:39;;;;;;;11.68;8.13;;;13.00;99.90;;;;;;5016293;28;20069;-82
2021/08/25 02:44:04;;;;;;;11.52;7.95;;;12.90;99.90;;;;;;5035170;28;20033;-82
2021/08/25 02:46:30;;;;;;;13.35;7.80;;;12.90;99.90;;;;;;5037562;28;20030;-82
2021/08/25 02:48:56;;;;;;;15.20;8.57;;;12.80;99.90;;;;;;5022226;28;20021;-82
2021/08/25 02:51:21;;;;;;;12.07;8.23;;;12.80;99.90;;;;;;5028170;28;20107;-81
2021/08/25 02:53:47;;;;;;;12.93;8.18;;;12.80;99.90;;;;;;5020513;28;20026;-82
2021/08/25 02:56:12;;;;;;;13.50;8.52;;;12.80;99.90;;;;;;5020374;28;20036;-82
2021/08/25 02:58:38;;;;;;;13.68;8.23;;;12.70;99.90;;;;;;5037674;28;20036;-82
2021/08/25 03:01:04;;;;;;;12.65;8.48;;;12.80;99.90;;;;;;5020577;28;20033;-79
2021/08/25 03:03:29;;;;;;;13.55;8.60;;;12.70;99.90;;;;;;5035072;28;20033;-82
2021/08/25 03:05:55;;;;;;;12.95;9.45;;;12.70;99.90;;;;;;5033964;28;20535;-82
2021/08/25 03:08:21;;;;;;;14.15;9.63;;;12.70;99.90;;;;;;5032577;28;20077;-81
2021/08/25 03:10:46;;;;;;;13.75;9.40;;;12.70;99.90;;;;;;5033731;28;20028;-82
2021/08/25 03:13:12;;;;;;;13.25;8.85;;;12.70;99.90;;;;;;5032821;28;20459;-81
2021/08/25 03:15:37;;;;;;;14.65;8.73;;;12.60;99.90;;;;;;5033091;28;20108;-82
2021/08/25 03:18:03;;;;;;;13.55;9.20;;;12.60;99.90;;;;;;5018372;28;20032;-82
2021/08/25 03:20:29;;;;;;;13.80;8.68;;;12.60;99.90;;;;;;5037398;28;20048;-81
2021/08/25 03:22:55;;;;;;;12.77;8.77;;;12.50;99.90;;;;;;5018547;28;20393;-82
2021/08/25 03:25:20;;;;;;;15.52;9.73;;;12.60;99.90;;;;;;5054436;28;20036;-80
2021/08/25 03:27:46;;;;;;;14.75;9.35;;;12.60;99.90;;;;;;5076005;28;20052;-81
2021/08/25 03:30:12;;;;;;;12.48;8.63;;;12.60;99.90;;;;;;5059531;28;20037;-82
2021/08/25 03:32:38;;;;;;;13.63;9.60;;;12.60;99.90;;;;;;5036567;28;20040;-82
2021/08/25 03:35:04;;;;;;;14.90;9.55;;;12.50;99.90;;;;;;5018583;28;20041;-81
2021/08/25 03:37:30;;;;;;;12.98;9.30;;;12.50;99.90;;;;;;5037451;28;20060;-82
2021/08/25 03:39:55;;;;;;;12.52;8.90;;;12.50;99.90;;;;;;5036899;28;20029;-81
2021/08/25 03:42:21;;;;;;;13.05;9.15;;;12.50;99.90;;;;;;5036836;28;20105;-81
2021/08/25 03:44:46;;;;;;;12.95;9.18;;;12.50;99.90;;;;;;5018933;28;20036;-82
2021/08/25 03:47:12;;;;;;;13.07;9.23;;;12.50;99.90;;;;;;5019762;28;20044;-81
2021/08/25 03:49:38;;;;;;;16.67;9.50;;;12.50;99.90;;;;;;5018408;28;20049;-82
2021/08/25 03:52:04;;;;;;;14.32;8.80;;;12.50;99.90;;;;;;5037171;28;20152;-82
2021/08/25 03:54:30;;;;;;;12.80;8.90;;;12.50;99.90;;;;;;5019523;28;20025;-82
2021/08/25 03:56:56;;;;;;;13.90;9.15;;;12.50;99.90;;;;;;5037330;28;20129;-82
2021/08/25 03:59:22;;;;;;;14.65;9.35;;;12.40;99.90;;;;;;5018499;28;20032;-83
2021/08/25 04:01:49;;;;;;;12.68;9.35;;;12.50;99.90;;;;;;5037291;28;20048;-83
2021/08/25 04:04:16;;;;;;;14.43;9.27;;;12.40;99.90;;;;;;5037718;28;20594;-83
2021/08/25 04:06:41;;;;;;;14.93;8.82;;;12.50;99.90;;;;;;5019974;28;20557;-82
2021/08/25 04:09:07;;;;;;;13.60;9.18;;;12.50;99.90;;;;;;5019199;28;20041;-80
2021/08/25 04:11:33;;;;;;;15.85;8.77;;;12.50;99.90;;;;;;5033683;28;20033;-81
2021/08/25 04:14:00;;;;;;;12.43;8.70;;;12.40;99.90;;;;;;5034422;28;20037;-80
2021/08/25 04:16:26;;;;;;;13.02;9.68;;;12.40;99.90;;;;;;5016019;28;20120;-80
2021/08/25 04:18:51;;;;;;;15.32;9.27;;;12.40;99.90;;;;;;5015328;28;20137;-80
2021/08/25 04:21:17;;;;;;;14.25;8.93;;;12.40;99.90;;;;;;5034410;28;20033;-81
2021/08/25 04:23:43;;;;;;;13.07;9.27;;;12.40;99.90;;;;;;5043019;28;20380;-80
2021/08/25 04:26:09;;;;;;;14.32;9.02;;;12.40;99.90;;;;;;5074511;28;20025;-81
2021/08/25 04:28:35;;;;;;;17.35;9.60;;;12.40;99.90;;;;;;5072423;28;20397;-80
2021/08/25 04:31:00;;;;;;;15.20;8.35;;;12.40;99.90;;;;;;5049014;28;20051;-80
2021/08/25 04:33:26;;;;;;;12.77;8.18;;;12.30;99.90;;;;;;5015215;28;20041;-80
2021/08/25 04:35:52;;;;;;;13.43;8.57;;;12.40;99.90;;;;;;5033230;28;20040;-80
2021/08/25 04:38:17;;;;;;;13.27;8.98;;;12.40;99.90;;;;;;5033091;28;20557;-81
2021/08/25 04:40:44;;;;;;;13.15;8.88;;;12.40;99.90;;;;;;5034086;28;20025;-80
2021/08/25 04:43:09;;;;;;;15.05;8.70;;;12.30;99.90;;;;;;5015248;28;20080;-80
2021/08/25 04:45:37;;;;;;;12.68;8.55;;;12.30;99.90;;;;;;5033104;28;20494;-81
2021/08/25 04:48:03;;;;;;;13.88;8.93;;;12.40;99.90;;;;;;5032697;28;20509;-80
2021/08/25 04:50:29;;;;;;;14.18;8.48;;;12.40;99.90;;;;;;5033206;28;20034;-81
2021/08/25 04:52:54;;;;;;;14.65;8.55;;;12.40;99.90;;;;;;5033170;28;20029;-80
2021/08/25 04:55:20;;;;;;;12.52;8.60;;;12.40;99.90;;;;;;5032911;28;20029;-81
2021/08/25 04:57:45;;;;;;;13.55;8.57;;;12.40;99.90;;;;;;5032243;28;20554;-79
2021/08/25 05:00:11;;;;;;;15.13;8.82;;;12.40;99.90;;;;;;5032742;28;20064;-79
2021/08/25 05:02:37;;;;;;;12.40;8.43;;;12.50;99.90;;;;;;5032660;28;20079;-80
2021/08/25 05:05:03;;;;;;;16.05;9.15;;;12.50;99.90;;;;;;5033035;28;20108;-82
2021/08/25 05:07:28;;;;;;;14.13;8.48;;;12.50;99.90;;;;;;5015035;28;20028;-81
2021/08/25 05:09:54;;;;;;;14.07;8.43;;;12.50;99.90;;;;;;5014746;28;20096;-81
2021/08/25 05:12:20;;;;;;;13.98;8.35;;;12.60;99.90;;;;;;5052437;22;20049;-85
2021/08/25 05:14:46;;;;;;;13.68;8.43;;;12.50;99.90;;;;;;5029316;28;20025;-85
2021/08/25 05:17:13;;;;;;;17.08;9.20;;;12.70;99.90;;;;;;5041248;28;20022;-86
2021/08/25 05:19:39;;;;;;;13.00;8.13;;;12.70;99.90;;;;;;5038679;28;20102;-85
2021/08/25 05:22:06;;;;;;;11.40;7.50;;;12.80;99.90;;;;;;5035073;28;20080;-85
2021/08/25 05:24:33;;;;;;;13.32;8.05;;;12.80;99.90;;;;;;5043546;28;20493;-85
2021/08/25 05:26:59;;;;;;;13.20;7.60;;;12.90;99.90;;;;;;5027476;28;20025;-85
2021/08/25 05:29:24;;;;;;;11.38;7.78;;;12.90;99.90;;;;;;5036219;28;20537;-85
2021/08/25 05:31:50;;;;;;;11.35;8.00;;;13.00;99.90;;;;;;5034267;28;20047;-85
2021/08/25 05:34:15;;;;;;;12.25;7.88;;;13.10;99.90;;;;;;5051580;28;20025;-85
2021/08/25 05:36:41;;;;;;;12.40;7.82;;;13.10;99.90;;;;;;5029770;28;20574;-84
2021/08/25 05:39:07;;;;;;;17.40;8.55;;;13.10;99.90;;;;;;5013222;28;20124;-85
2021/08/25 05:41:32;;;;;;;13.70;8.48;;;13.20;99.90;;;;;;5031109;28;20022;-85
2021/08/25 05:43:58;;;;;;;12.63;7.97;;;13.20;99.90;;;;;;5030949;28;20026;-85
2021/08/25 05:46:23;;;;;;;12.18;8.20;;;13.30;99.90;;;;;;5016668;28;20088;-85
2021/08/25 05:48:49;;;;;;;14.50;8.70;;;13.40;99.90;;;;;;5050587;28;20497;-85
2021/08/25 05:51:15;;;;;;;15.43;9.02;;;13.40;99.90;;;;;;5032941;28;20078;-85
2021/08/25 05:53:40;;;;;;;13.88;8.45;;;13.50;99.90;;;;;;5028377;28;20014;-86
2021/08/25 05:56:06;;;;;;;12.70;8.15;;;13.50;99.90;;;;;;5030916;28;20029;-85
2021/08/25 05:58:31;;;;;;;13.13;7.72;;;13.60;99.90;;;;;;5013050;28;20113;-85
2021/08/25 06:00:57;;;;;;;12.93;8.10;;;13.70;99.90;;;;;;5013534;28;20022;-84
2021/08/25 06:03:22;;;;;;;12.25;8.05;;;13.70;99.90;;;;;;5012853;28;20473;-85
2021/08/25 06:05:53;;;;;;;10.82;7.13;;;13.80;99.90;;;;;;5030649;28;20082;-85
2021/08/25 06:08:18;;;;;;;11.63;7.30;;;13.90;99.90;;;;;;5012748;28;20033;-85
2021/08/25 06:10:44;;;;;;;13.95;7.72;;;14.00;99.90;;;;;;5029764;28;20025;-85
2021/08/25 06:13:09;;;;;;;9.73;7.15;;;14.10;99.90;;;;;;5012469;28;20121;-85
2021/08/25 06:15:35;;;;;;;11.52;6.90;;;14.20;99.90;;;;;;5030827;28;20413;-85
2021/08/25 06:18:00;;;;;;;11.30;7.00;;;14.30;99.90;;;;;;5030332;28;20059;-85
2021/08/25 06:20:26;;;;;;;9.35;6.28;;;14.40;99.90;;;;;;5021944;28;20091;-85
2021/08/25 06:22:51;;;;;;;9.70;6.18;;;14.40;99.90;;;;;;5050366;28;20029;-85
2021/08/25 06:25:17;;;;;;;9.43;6.50;;;14.40;99.90;;;;;;5031908;28;20494;-86
2021/08/25 06:27:43;;;;;;;8.40;5.93;;;14.50;99.90;;;;;;5030381;28;20039;-85
2021/08/25 06:30:09;;;;;;;10.70;6.25;;;14.60;99.90;;;;;;5012911;28;20029;-85
2021/08/25 06:32:34;;;;;;;10.63;6.22;;;14.60;99.90;;;;;;5030288;28;20095;-85
2021/08/25 06:35:00;;;;;;;10.80;6.35;;;14.70;99.90;;;;;;5030381;28;20511;-85
2021/08/25 06:37:25;;;;;;;9.38;5.80;;;14.90;99.90;;;;;;5030363;28;20029;-85
2021/08/25 06:39:51;;;;;;;9.52;5.78;;;14.90;99.90;;;;;;5048375;28;20025;-86
2021/08/25 06:42:17;;;;;;;12.35;6.03;;;15.00;99.90;;;;;;5050109;28;20033;-85
2021/08/25 06:44:42;;;;;;;10.68;5.72;;;15.10;99.90;;;;;;5032333;28;20086;-86
2021/08/25 06:47:08;;;;;;;8.75;5.65;;;15.10;99.90;;;;;;5049625;28;20029;-86
2021/08/25 06:49:33;;;;;;;8.07;5.78;;;15.20;99.90;;;;;;5031892;28;20036;-85
2021/08/25 06:51:59;;;;;;;9.52;5.55;;;15.20;99.90;;;;;;5034514;28;20114;-86
2021/08/25 06:54:24;;;;;;;10.55;5.13;;;15.30;99.90;;;;;;5036009;28;20032;-85
2021/08/25 06:56:50;;;;;;;8.18;5.15;;;15.40;99.90;;;;;;5031828;28;20048;-85
2021/08/25 06:59:16;;;;;;;9.02;5.50;;;15.40;99.90;;;;;;5015797;28;20490;-85
2021/08/25 07:01:42;;;;;;;10.02;5.32;;;15.50;99.90;;;;;;5016025;28;20049;-86
2021/08/25 07:04:07;;;;;;;8.15;4.70;;;15.60;99.90;;;;;;5018865;28;20120;-85
2021/08/25 07:06:33;;;;;;;7.55;4.43;;;15.70;99.90;;;;;;5016102;28;20037;-85
2021/08/25 07:08:58;;;;;;;9.55;4.93;;;15.70;99.90;;;;;;5033578;28;20021;-86
2021/08/25 07:11:24;;;;;;;8.15;4.85;;;15.80;99.90;;;;;;5019385;28;20469;-85
2021/08/25 07:13:49;;;;;;;7.40;4.50;;;15.90;99.90;;;;;;5053689;28;20378;-84
2021/08/25 07:16:16;;;;;;;7.00;4.65;;;16.00;99.90;;;;;;5035716;28;20036;-86
2021/08/25 07:18:43;;;;;;;8.60;4.93;;;16.10;99.90;;;;;;5035676;28;20115;-85
2021/08/25 07:21:10;;;;;;;7.93;4.93;;;16.20;99.90;;;;;;5054105;28;20085;-85
2021/08/25 07:23:36;;;;;;;7.78;4.72;;;16.10;99.90;;;;;;5031723;28;20021;-86
2021/08/25 07:26:02;;;;;;;7.55;4.68;;;16.30;99.90;;;;;;5016469;28;20457;-86
2021/08/25 07:28:28;;;;;;;9.07;4.75;;;16.30;99.90;;;;;;5015775;28;20030;-86
2021/08/25 07:30:53;;;;;;;7.50;4.68;;;16.40;99.90;;;;;;5034454;28;20512;-85
2021/08/25 07:33:20;;;;;;;7.97;5.30;;;16.50;99.90;;;;;;5034326;28;20044;-86
2021/08/25 07:35:48;;;;;;;8.32;4.20;;;16.70;99.90;;;;;;5016758;28;20030;-85
2021/08/25 07:38:14;;;;;;;8.73;4.25;;;16.70;99.90;;;;;;5015685;28;20021;-85
2021/08/25 07:40:40;;;;;;;7.63;3.88;;;16.80;99.90;;;;;;5037041;28;20031;-85
2021/08/25 07:43:05;;;;;;;7.88;4.63;;;16.80;99.90;;;;;;5028266;28;20385;-86
2021/08/25 07:45:34;;;;;;;9.20;4.78;;;16.90;99.90;;;;;;5014306;28;20025;-85
2021/08/25 07:47:59;;;;;;;7.85;4.15;;;17.00;99.90;;;;;;5014407;28;20053;-86
2021/08/25 07:50:25;;;;;;;6.45;3.67;;;17.00;99.90;;;;;;5024290;28;20060;-85
2021/08/25 07:52:51;;;;;;;8.95;4.30;;;17.10;99.90;;;;;;5015462;28;20036;-86
2021/08/25 07:55:16;;;;;;;8.05;4.40;;;17.20;99.90;;;;;;5015240;28;20401;-86
2021/08/25 07:57:42;;;;;;;8.60;3.97;;;17.40;99.90;;;;;;5033313;28;20049;-86
2021/08/25 08:00:08;;;;;;;8.30;4.05;;;17.40;99.90;;;;;;5032899;28;20029;-86
2021/08/25 08:02:34;;;;;;;6.53;3.47;;;17.50;99.90;;;;;;5014834;28;20146;-86
2021/08/25 08:05:01;;;;;;;6.90;3.80;;;17.60;99.90;;;;;;5015218;28;20041;-86
2021/08/25 08:07:26;;;;;;;7.90;3.45;;;17.70;99.90;;;;;;5015379;28;20037;-86
2021/08/25 08:09:52;;;;;;;8.05;3.30;;;17.70;99.90;;;;;;5032558;28;20176;-86
2021/08/25 08:12:17;;;;;;;8.27;4.00;;;17.80;99.90;;;;;;5032681;28;20029;-87
2021/08/25 08:14:43;;;;;;;9.77;4.78;;;17.90;99.90;;;;;;5031337;28;20021;-85
2021/08/25 08:17:09;;;;;;;7.97;5.10;;;18.00;99.90;;;;;;5033940;28;20505;-86
2021/08/25 08:19:34;;;;;;;9.98;4.82;;;18.00;99.90;;;;;;5014471;28;20330;-87
2021/08/25 08:22:02;;;;;;;8.48;5.00;;;18.10;99.90;;;;;;5026919;28;20390;-86
2021/08/25 08:24:29;;;;;;;7.10;4.57;;;18.10;99.90;;;;;;5030623;28;20066;-86
2021/08/25 08:26:54;;;;;;;8.82;5.03;;;18.10;99.90;;;;;;5055020;28;20095;-86
2021/08/25 08:29:21;;;;;;;8.80;5.07;;;18.10;99.90;;;;;;5036260;28;20053;-85
2021/08/25 08:31:46;;;;;;;7.53;4.70;;;17.90;99.90;;;;;;5072810;28;20044;-86
2021/08/25 08:34:12;;;;;;;7.55;4.07;;;18.00;99.90;;;;;;5055117;28;20032;-85
2021/08/25 08:36:38;;;;;;;7.53;4.07;;;18.10;99.90;;;;;;5055468;28;20458;-86
2021/08/25 08:39:04;;;;;;;7.55;4.60;;;18.10;99.90;;;;;;5037907;28;20036;-87
2021/08/25 08:41:30;;;;;;;6.30;3.67;;;18.30;99.90;;;;;;5015319;28;20654;-85
2021/08/25 08:43:56;;;;;;;9.20;4.40;;;18.30;99.90;;;;;;5033042;28;20095;-86
2021/08/25 08:46:23;;;;;;;6.53;4.03;;;18.40;99.90;;;;;;5015627;28;20033;-87
2021/08/25 08:48:50;;;;;;;6.70;3.78;;;18.50;99.90;;;;;;5015534;28;20033;-86
2021/08/25 08:51:18;;;;;;;7.97;3.70;;;18.50;99.90;;;;;;5015528;28;20022;-86
2021/08/25 08:53:45;;;;;;;6.05;3.60;;;18.70;99.90;;;;;;5033178;28;20022;-86
2021/08/25 08:56:11;;;;;;;7.97;3.65;;;18.70;99.90;;;;;;5040511;28;20033;-86
2021/08/25 08:58:41;;;;;;;9.10;3.70;;;19.00;99.90;;;;;;5034304;28;20448;-86
2021/08/25 09:01:07;;;;;;;7.90;3.83;;;18.90;99.90;;;;;;5034813;28;20021;-86
2021/08/25 09:03:39;;;;;;;8.63;3.42;;;18.90;99.90;;;;;;5051853;28;20154;-86
2021/08/25 09:06:07;;;;;;;5.53;3.25;;;18.90;99.90;;;;;;5052539;28;20033;-86
2021/08/25 09:08:38;;;;;;;8.13;3.60;;;19.10;99.90;;;;;;5034470;28;20395;-87
2021/08/25 09:11:13;;;;;;;5.38;2.95;;;19.10;99.90;;;;;;5034758;28;20021;-86
2021/08/25 09:13:51;;;;;;;7.68;3.70;;;19.20;99.90;;;;;;5029658;28;20057;-86
2021/08/25 09:16:37;;;;;;;6.57;3.25;;;19.30;99.90;;;;;;5014826;28;20138;-87
2021/08/25 09:19:03;;;;;;;5.78;3.45;;;19.50;99.90;;;;;;5013774;28;20037;-85
2021/08/25 09:21:31;;;;;;;6.50;3.03;;;19.60;99.90;;;;;;5019700;28;20482;-86
2021/08/25 09:23:57;;;;;;;6.28;2.70;;;19.60;99.90;;;;;;5038250;28;20369;-87
2021/08/25 09:26:22;;;;;;;4.53;2.50;;;19.70;99.90;;;;;;5034584;28;20029;-87
2021/08/25 09:28:50;;;;;;;5.03;2.55;;;19.80;99.90;;;;;;5046412;28;20090;-86
2021/08/25 09:31:16;;;;;;;5.05;2.65;;;19.90;99.90;;;;;;5030479;28;20548;-87
2021/08/25 09:33:47;;;;;;;6.70;2.83;;;20.10;99.90;;;;;;5014538;28;20038;-86
2021/08/25 09:36:18;;;;;;;6.20;2.95;;;20.30;99.90;;;;;;5032229;28;20029;-86
2021/08/25 09:38:55;;;;;;;4.85;2.50;;;20.30;99.90;;;;;;5032279;28;20034;-87
2021/08/25 09:41:21;;;;;;;6.10;2.50;;;20.30;99.90;;;;;;5032069;28;20025;-86
2021/08/25 09:43:51;;;;;;;7.05;3.20;;;20.20;99.90;;;;;;5031813;28;20113;-87
2021/08/25 09:46:25;;;;;;;4.80;2.65;;;20.30;99.90;;;;;;5043150;28;20060;-86
2021/08/25 09:48:52;;;;;;;6.97;2.67;;;20.30;99.90;;;;;;5033582;28;20079;-86
2021/08/25 09:51:37;;;;;;;5.43;2.63;;;20.40;99.90;;;;;;5034231;28;20040;-87
2021/08/25 09:54:05;;;;;;;5.07;2.50;;;20.40;99.90;;;;;;5034151;28;20066;-87
2021/08/25 09:56:34;;;;;;;8.10;3.00;;;20.60;99.90;;;;;;5033389;28;20024;-87
2021/08/25 09:59:03;;;;;;;5.43;2.65;;;20.50;99.90;;;;;;5052755;28;20036;-86
2021/08/25 10:01:29;;;;;;;5.88;2.75;;;20.70;99.90;;;;;;5051977;28;20052;-87
2021/08/25 10:03:56;;;;;;;6.97;2.45;;;20.50;99.90;;;;;;5030513;28;20084;-86
2021/08/25 10:06:24;;;;;;;6.47;3.22;;;20.50;99.90;;;;;;5014500;28;20512;-87
2021/08/25 10:08:50;;;;;;;5.93;2.67;;;20.30;99.90;;;;;;5014285;28;20032;-87
2021/08/25 10:11:20;;;;;;;5.95;3.00;;;20.40;99.90;;;;;;5014907;28;20025;-87
2021/08/25 10:13:45;;;;;;;4.95;2.60;;;20.60;99.90;;;;;;5014472;28;20116;-87
2021/08/25 10:16:13;;;;;;;8.20;4.20;;;20.70;99.90;;;;;;5032809;28;20053;-86
2021/08/25 10:18:41;;;;;;;5.82;2.60;;;20.70;99.90;;;;;;5032058;28;20063;-87
2021/08/25 10:21:36;;;;;;;5.32;2.58;;;20.90;99.90;;;;;;5046560;28;20029;-87
2021/08/25 10:24:05;;;;;;;5.55;2.65;;;21.10;99.50;;;;;;5026490;28;20026;-86
2021/08/25 10:26:32;;;;;;;5.35;2.38;;;21.30;99.30;;;;;;5032689;28;20050;-87
2021/08/25 10:29:10;;;;;;;6.15;2.80;;;21.50;98.80;;;;;;5036186;28;20130;-87
2021/08/25 10:31:48;;;;;;;5.38;2.70;;;21.30;97.90;;;;;;5038093;28;20021;-88
2021/08/25 10:34:15;;;;;;;5.00;2.40;;;21.20;98.20;;;;;;5056550;28;20112;-87
2021/08/25 10:36:41;;;;;;;5.32;2.67;;;21.40;98.40;;;;;;5038321;28;20389;-86
2021/08/25 10:39:29;;;;;;;6.05;2.40;;;21.10;97.90;;;;;;5033840;28;20461;-85
2021/08/25 10:41:55;;;;;;;5.10;2.22;;;20.80;99.00;;;;;;5035635;28;20377;-87
2021/08/25 10:44:36;;;;;;;5.97;2.70;;;20.40;98.40;;;;;;5035766;28;20033;-87
2021/08/25 10:47:03;;;;;;;5.65;2.67;;;20.30;98.40;;;;;;5018227;28;20497;-86
2021/08/25 10:49:31;;;;;;;8.90;2.47;;;20.60;97.90;;;;;;5032862;28;20112;-86
2021/08/25 10:52:18;;;;;;;5.95;2.50;;;20.80;98.70;;;;;;5035566;28;20187;-85
2021/08/25 10:54:51;;;;;;;5.63;2.75;;;20.90;98.10;;;;;;5034544;28;20030;-86
2021/08/25 10:57:19;;;;;;;5.75;2.53;;;21.10;97.50;;;;;;5048918;28;20519;-86
2021/08/25 10:59:46;;;;;;;6.78;2.35;;;21.60;97.60;;;;;;5055106;28;20033;-87
2021/08/25 11:02:12;;;;;;;4.75;2.60;;;21.90;97.30;;;;;;5055617;28;20103;-87
2021/08/25 11:04:38;;;;;;;6.28;3.13;;;22.30;97.60;;;;;;5033070;28;20033;-87
2021/08/25 11:07:06;;;;;;;4.93;2.72;;;22.60;95.20;;;;;;5035721;28;20048;-86
2021/08/25 11:09:34;;;;;;;7.47;2.80;;;22.90;94.80;;;;;;5035319;28;20394;-87
2021/08/25 11:12:14;;;;;;;5.75;2.80;;;23.20;94.80;;;;;;5017123;28;20044;-87
2021/08/25 11:14:47;;;;;;;6.78;2.70;;;23.20;95.10;;;;;;5055429;23;20068;-84
2021/08/25 11:17:24;;;;;;;7.25;2.90;;;23.30;94.20;;;;;;5056124;28;20295;-83
2021/08/25 11:19:52;;;;;;;4.90;2.55;;;23.40;92.90;;;;;;5040080;28;20032;-84
2021/08/25 11:22:28;;;;;;;6.35;2.50;;;23.40;92.00;;;;;;5051106;28;20032;-83
2021/08/25 11:24:58;;;;;;;5.25;2.63;;;23.10;92.90;;;;;;5077187;28;20087;-83
2021/08/25 11:27:36;;;;;;;5.47;2.70;;;23.30;93.00;;;;;;5077203;28;20024;-83
2021/08/25 11:30:05;;;;;;;6.43;2.40;;;23.40;92.40;;;;;;5051062;28;20401;-84
2021/08/25 11:32:32;;;;;;;5.38;2.60;;;23.30;93.30;;;;;;5076597;28;20683;-83
2021/08/25 11:34:58;;;;;;;6.70;2.67;;;23.20;92.40;;;;;;5097841;28;20036;-83
2021/08/25 11:37:23;;;;;;;6.75;2.53;;;23.30;92.90;;;;;;5097718;28;20436;-83
2021/08/25 11:40:03;;;;;;;8.43;3.03;;;23.20;93.50;;;;;;5074893;28;20027;-83
2021/08/25 11:42:36;;;;;;;4.90;2.67;;;23.50;91.80;;;;;;5074520;28;20326;-83
2021/08/25 11:45:22;;;;;;;6.22;2.80;;;23.50;91.00;;;;;;5074480;28;20016;-83
2021/08/25 11:47:53;;;;;;;5.57;2.28;;;23.80;91.30;;;;;;5056997;28;20079;-83
2021/08/25 11:50:22;;;;;;;6.43;2.65;;;23.90;91.60;;;;;;5076490;28;20024;-83
2021/08/25 11:52:48;;;;;;;8.45;3.00;;;23.80;89.00;;;;;;5096294;28;20029;-83
2021/08/25 11:55:15;;;;;;;5.63;3.00;;;23.80;87.20;;;;;;5092260;28;20108;-84
2021/08/25 11:57:49;;;;;;;4.50;2.53;;;23.90;90.20;;;;;;5059467;28;20031;-84
2021/08/25 12:00:17;;;;;;;7.85;2.90;;;24.00;90.70;;;;;;5077826;28;20009;-84
2021/08/25 12:03:00;;;;;;;6.20;2.78;;;24.10;89.70;;;;;;5077163;28;20025;-84
2021/08/25 12:05:34;;;;;;;6.43;2.70;;;24.40;88.20;;;;;;5058672;28;20032;-84
2021/08/25 12:08:04;;;;;;;4.65;2.50;;;24.10;90.90;;;;;;5077818;28;20085;-85
2021/08/25 12:10:31;;;;;;;5.80;2.63;;;24.50;90.50;;;;;;5078134;28;20040;-84
2021/08/25 12:12:57;;;;;;;4.85;2.25;;;24.20;89.30;;;;;;5076771;28;20021;-84
2021/08/25 12:15:48;;;;;;;6.13;2.90;;;24.10;86.90;;;;;;5084434;28;20028;-84
2021/08/25 12:18:15;;;;;;;5.30;2.92;;;24.00;89.10;;;;;;5090953;28;20072;-83
2021/08/25 12:20:44;;;;;;;6.22;3.08;;;24.50;86.90;;;;;;5088539;28;20020;-83
2021/08/25 12:23:12;;;;;;;5.45;2.78;;;24.50;86.10;;;;;;5070801;28;20026;-84
2021/08/25 12:25:49;;;;;;;6.20;2.80;;;24.40;88.10;;;;;;5080763;28;20035;-84
2021/08/25 12:28:36;;;;;;;6.63;3.03;;;24.40;85.70;;;;;;5059278;28;20028;-83
2021/08/25 12:31:17;;;;;;;6.15;2.83;;;24.50;86.20;;;;;;5068463;28;20120;-84
2021/08/25 12:33:45;;;;;;;5.80;2.40;;;25.20;84.90;;;;;;5058313;28;20021;-84
2021/08/25 12:36:25;;;;;;;5.72;2.70;;;24.90;83.20;;;;;;5039571;28;20033;-84
2021/08/25 12:38:53;;;;;;;5.95;3.25;;;25.10;82.40;;;;;;5073881;28;20056;-84
2021/08/25 12:41:20;;;;;;;7.40;3.40;;;25.30;82.90;;;;;;5063639;28;20024;-83
2021/08/25 12:43:46;;;;;;;5.53;2.83;;;25.20;83.40;;;;;;5063362;28;20055;-83